Time;durP1;ratioP1;P1;durP2;ratioP2;P2;SDS_P1;SDS_P2;PMS_P1;PMS_P2;Temp;Humidity;BMP_temperature;BMP_pressure;BME280_temperature;BME280_humidity;BME280_pressure;Samples;Min_cycle;Max_cycle;Signal;HPM_P1;HPM_P2
2021/08/21 00:01:58;;;;;;;7.63;5.20;;;;;;;;;;4979342;28;20460;-71
2021/08/21 00:04:24;;;;;;;9.02;5.30;;;;;;;;;;4983232;28;20086;-71
2021/08/21 00:06:50;;;;;;;10.70;5.75;;;;;;;;;;4988617;28;20034;-71
2021/08/21 00:09:16;;;;;;;7.63;5.45;;;;;;;;;;4977810;28;20030;-71
2021/08/21 00:11:42;;;;;;;7.68;5.63;;;;;;;;;;4986965;28;20042;-71
2021/08/21 00:14:08;;;;;;;8.10;5.00;;;;;;;;;;4988624;28;20752;-71
2021/08/21 00:16:34;;;;;;;7.25;5.22;;;;;;;;;;4987448;28;20050;-72
2021/08/21 00:19:00;;;;;;;10.30;5.60;;;;;;;;;;4990500;28;20037;-71
2021/08/21 00:21:26;;;;;;;8.43;5.70;;;;;;;;;;4985182;28;20084;-71
2021/08/21 00:23:52;;;;;;;10.82;6.50;;;;;;;;;;4988587;28;20105;-71
2021/08/21 00:26:18;;;;;;;10.65;6.50;;;;;;;;;;4980522;28;20536;-71
2021/08/21 00:28:44;;;;;;;10.30;6.50;;;;;;;;;;4980050;28;20026;-72
2021/08/21 00:31:10;;;;;;;9.57;6.25;;;;;;;;;;4995950;28;20026;-71
2021/08/21 00:33:36;;;;;;;10.45;6.70;;;;;;;;;;4986202;28;20031;-70
2021/08/21 00:36:02;;;;;;;10.52;6.47;;;;;;;;;;4988381;28;20064;-70
2021/08/21 00:38:28;;;;;;;9.20;6.22;;;;;;;;;;4981597;28;20030;-71
2021/08/21 00:40:54;;;;;;;13.13;7.20;;;;;;;;;;4983530;28;20465;-71
2021/08/21 00:43:20;;;;;;;10.63;7.00;;;;;;;;;;4984346;28;20067;-71
2021/08/21 00:45:46;;;;;;;11.73;6.10;;;;;;;;;;4986751;28;20061;-71
2021/08/21 00:48:12;;;;;;;10.13;6.45;;;;;;;;;;4987867;28;20030;-71
2021/08/21 00:50:38;;;;;;;13.75;6.43;;;;;;;;;;4981360;28;20044;-71
2021/08/21 00:53:04;;;;;;;10.95;7.03;;;;;;;;;;4989923;28;20045;-71
2021/08/21 00:55:30;;;;;;;10.02;6.53;;;;;;;;;;4983295;28;20042;-71
2021/08/21 00:57:56;;;;;;;9.68;7.20;;;;;;;;;;4988501;28;20128;-71
2021/08/21 01:00:22;;;;;;;11.75;6.90;;;;;;;;;;4989740;28;20545;-71
2021/08/21 01:02:48;;;;;;;8.80;7.05;;;;;;;;;;4982713;28;20039;-71
2021/08/21 01:05:15;;;;;;;9.05;6.82;;;;;;;;;;4987037;28;20029;-71
2021/08/21 01:07:41;;;;;;;10.55;6.65;;;;;;;;;;4985533;28;20409;-72
2021/08/21 01:10:09;;;;;;;9.77;6.07;;;;;;;;;;4981536;28;20037;-71
2021/08/21 01:12:35;;;;;;;10.45;6.63;;;;;;;;;;4978655;28;20022;-71
2021/08/21 01:15:01;;;;;;;8.60;5.63;;;;;;;;;;4984021;28;20473;-71
2021/08/21 01:17:28;;;;;;;8.90;6.30;;;;;;;;;;4973366;28;20038;-71
2021/08/21 01:19:53;;;;;;;10.02;5.85;;;;;;;;;;4980516;28;20559;-71
2021/08/21 01:22:21;;;;;;;8.80;5.60;;;;;;;;;;4988760;28;20031;-71
2021/08/21 01:24:50;;;;;;;7.43;5.50;;;;;;;;;;4980048;28;20026;-71
2021/08/21 01:27:19;;;;;;;7.57;4.93;;;;;;;;;;4989343;28;20034;-71
2021/08/21 01:29:45;;;;;;;9.18;5.22;;;;;;;;;;4985125;28;20121;-71
2021/08/21 01:32:12;;;;;;;8.27;5.47;;;;;;;;;;4991033;28;20438;-71
2021/08/21 01:34:38;;;;;;;10.13;5.90;;;;;;;;;;4975832;28;20027;-71
2021/08/21 01:37:04;;;;;;;10.48;5.93;;;;;;;;;;4983364;28;20125;-71
2021/08/21 01:39:30;;;;;;;9.07;5.43;;;;;;;;;;4975022;28;20039;-72
2021/08/21 01:41:56;;;;;;;7.75;5.40;;;;;;;;;;4986113;28;20026;-71
2021/08/21 01:44:22;;;;;;;11.57;5.95;;;;;;;;;;4982225;28;20030;-71
2021/08/21 01:46:48;;;;;;;9.00;5.40;;;;;;;;;;4985878;28;20030;-71
2021/08/21 01:49:15;;;;;;;8.38;5.32;;;;;;;;;;4984322;28;20510;-71
2021/08/21 01:51:42;;;;;;;7.07;5.00;;;;;;;;;;4981970;28;20026;-71
2021/08/21 01:54:12;;;;;;;7.65;4.95;;;;;;;;;;4987346;28;20019;-71
2021/08/21 01:56:45;;;;;;;8.45;5.22;;;;;;;;;;4988530;28;20023;-71
2021/08/21 01:59:18;;;;;;;7.63;5.43;;;;;;;;;;4975582;28;20034;-71
2021/08/21 02:01:44;;;;;;;6.82;5.45;;;;;;;;;;4984367;28;20105;-72
2021/08/21 02:04:10;;;;;;;7.45;5.28;;;;;;;;;;4979300;28;20030;-71
2021/08/21 02:06:36;;;;;;;10.52;5.13;;;;;;;;;;4987386;28;20125;-71
2021/08/21 02:09:02;;;;;;;7.75;5.13;;;;;;;;;;4980342;28;20149;-71
2021/08/21 02:11:27;;;;;;;10.55;6.43;;;;;;;;;;4972394;28;20433;-71
2021/08/21 02:13:53;;;;;;;7.32;5.38;;;;;;;;;;4988531;28;20031;-71
2021/08/21 02:16:19;;;;;;;7.68;5.13;;;;;;;;;;4983091;28;20025;-71
2021/08/21 02:18:45;;;;;;;7.25;5.07;;;;;;;;;;4982632;28;20537;-71
2021/08/21 02:21:12;;;;;;;7.43;4.88;;;;;;;;;;4981815;28;20053;-71
2021/08/21 02:23:38;;;;;;;7.97;5.32;;;;;;;;;;4969998;28;20369;-71
2021/08/21 02:26:05;;;;;;;7.32;5.35;;;;;;;;;;4985262;28;20034;-71
2021/08/21 02:28:31;;;;;;;8.25;5.75;;;;;;;;;;4979833;28;20419;-71
2021/08/21 02:30:57;;;;;;;7.55;5.35;;;;;;;;;;4987515;28;20030;-71
2021/08/21 02:33:23;;;;;;;6.85;5.25;;;;;;;;;;4969714;28;20018;-71
2021/08/21 02:35:49;;;;;;;6.90;4.97;;;;;;;;;;4982233;28;20037;-71
2021/08/21 02:38:14;;;;;;;8.32;5.35;;;;;;;;;;4978655;28;20046;-71
2021/08/21 02:40:40;;;;;;;8.38;4.90;;;;;;;;;;4988500;28;20528;-71
2021/08/21 02:43:07;;;;;;;8.00;5.03;;;;;;;;;;4987368;28;20401;-71
2021/08/21 02:45:33;;;;;;;7.20;5.30;;;;;;;;;;4979561;28;20058;-71
2021/08/21 02:47:59;;;;;;;11.52;5.38;;;;;;;;;;4986740;28;20484;-72
2021/08/21 02:50:25;;;;;;;8.68;4.93;;;;;;;;;;4986407;28;20432;-71
2021/08/21 02:52:51;;;;;;;9.75;5.90;;;;;;;;;;4979870;28;20478;-70
2021/08/21 02:55:17;;;;;;;7.13;4.82;;;;;;;;;;4983574;28;20243;-71
2021/08/21 02:57:43;;;;;;;7.43;5.63;;;;;;;;;;4983491;28;20027;-71
2021/08/21 03:00:09;;;;;;;9.57;5.82;;;;;;;;;;4981480;28;20504;-71
2021/08/21 03:02:35;;;;;;;8.13;5.13;;;;;;;;;;4987280;28;20544;-71
2021/08/21 03:05:01;;;;;;;8.07;5.57;;;;;;;;;;4986352;28;20053;-70
2021/08/21 03:07:27;;;;;;;8.93;5.45;;;;;;;;;;4980769;28;20142;-71
2021/08/21 03:09:52;;;;;;;8.63;5.47;;;;;;;;;;4980380;28;20030;-71
2021/08/21 03:12:18;;;;;;;8.50;5.32;;;;;;;;;;4981375;28;20049;-71
2021/08/21 03:14:44;;;;;;;7.25;5.18;;;;;;;;;;4979216;28;20142;-70
2021/08/21 03:17:11;;;;;;;10.73;5.45;;;;;;;;;;4981228;28;20086;-70
2021/08/21 03:19:37;;;;;;;8.65;5.68;;;;;;;;;;4976039;28;20041;-71
2021/08/21 03:22:03;;;;;;;6.68;5.20;;;;;;;;;;4977637;28;20034;-71
2021/08/21 03:24:29;;;;;;;8.70;5.20;;;;;;;;;;4984596;28;20026;-70
2021/08/21 03:26:55;;;;;;;8.70;5.68;;;;;;;;;;4975083;28;20077;-71
2021/08/21 03:29:21;;;;;;;9.07;4.97;;;;;;;;;;4987843;28;20543;-70
2021/08/21 03:31:47;;;;;;;6.05;4.65;;;;;;;;;;4990116;28;20066;-71
2021/08/21 03:34:13;;;;;;;8.35;4.85;;;;;;;;;;4981720;28;20061;-71
2021/08/21 03:36:38;;;;;;;8.73;4.95;;;;;;;;;;4979893;28;20026;-70
2021/08/21 03:39:04;;;;;;;7.22;4.70;;;;;;;;;;4982097;28;20134;-71
2021/08/21 03:41:30;;;;;;;7.07;4.55;;;;;;;;;;4983122;28;20105;-70
2021/08/21 03:43:56;;;;;;;9.30;4.68;;;;;;;;;;4981515;28;20092;-71
2021/08/21 03:46:22;;;;;;;7.25;4.90;;;;;;;;;;4982171;28;20023;-70
2021/08/21 03:48:48;;;;;;;7.80;5.07;;;;;;;;;;4986175;28;20026;-71
2021/08/21 03:51:14;;;;;;;6.43;4.70;;;;;;;;;;4987223;28;20037;-70
2021/08/21 03:53:40;;;;;;;6.45;5.18;;;;;;;;;;4983705;28;20046;-70
2021/08/21 03:56:05;;;;;;;7.10;5.25;;;;;;;;;;4987242;28;20080;-71
2021/08/21 03:58:31;;;;;;;8.18;5.10;;;;;;;;;;4986606;28;20056;-71
2021/08/21 04:01:00;;;;;;;7.15;4.80;;;;;;;;;;4990982;28;20245;-70
2021/08/21 04:03:26;;;;;;;7.78;5.03;;;;;;;;;;4988903;28;20768;-71
2021/08/21 04:05:52;;;;;;;9.05;4.63;;;;;;;;;;4986101;28;20037;-71
2021/08/21 04:08:18;;;;;;;6.97;4.85;;;;;;;;;;4984175;28;20120;-70
2021/08/21 04:10:44;;;;;;;6.57;5.00;;;;;;;;;;4984854;28;20043;-71
2021/08/21 04:13:09;;;;;;;5.90;4.55;;;;;;;;;;4983416;28;20030;-70
2021/08/21 04:15:36;;;;;;;6.57;4.90;;;;;;;;;;4983710;28;20050;-70
2021/08/21 04:18:02;;;;;;;6.40;4.75;;;;;;;;;;4986993;28;20246;-71
2021/08/21 04:20:28;;;;;;;6.93;4.93;;;;;;;;;;4989709;28;20432;-70
2021/08/21 04:22:56;;;;;;;7.88;5.00;;;;;;;;;;4987700;28;20030;-70
2021/08/21 04:25:22;;;;;;;9.13;5.07;;;;;;;;;;4985154;28;20379;-71
2021/08/21 04:27:48;;;;;;;7.85;4.80;;;;;;;;;;4983436;28;20036;-70
2021/08/21 04:30:14;;;;;;;10.98;5.10;;;;;;;;;;4996276;28;20499;-71
2021/08/21 04:32:41;;;;;;;8.30;5.18;;;;;;;;;;4988597;28;20036;-71
2021/08/21 04:35:10;;;;;;;8.88;5.25;;;;;;;;;;4987120;28;20125;-70
2021/08/21 04:37:36;;;;;;;7.72;5.15;;;;;;;;;;4979268;28;20034;-71
2021/08/21 04:40:02;;;;;;;7.80;5.13;;;;;;;;;;4985610;28;20089;-70
2021/08/21 04:42:28;;;;;;;7.75;5.03;;;;;;;;;;4980462;28;20037;-71
2021/08/21 04:44:59;;;;;;;5.57;4.60;;;;;;;;;;4980267;28;20101;-70
2021/08/21 04:47:28;;;;;;;7.70;5.00;;;;;;;;;;4989295;28;20561;-70
2021/08/21 04:49:55;;;;;;;11.38;4.88;;;;;;;;;;4980695;28;20031;-71
2021/08/21 04:52:21;;;;;;;7.90;5.50;;;;;;;;;;4984772;28;20113;-70
2021/08/21 04:54:47;;;;;;;9.20;5.25;;;;;;;;;;4983625;28;20049;-70
2021/08/21 04:57:13;;;;;;;7.28;5.28;;;;;;;;;;4985459;28;20026;-71
2021/08/21 04:59:39;;;;;;;9.20;5.03;;;;;;;;;;4978757;28;20172;-71
2021/08/21 05:02:05;;;;;;;10.68;5.30;;;;;;;;;;4977651;28;20035;-71
2021/08/21 05:04:31;;;;;;;7.40;5.30;;;;;;;;;;4983875;28;20034;-71
2021/08/21 05:06:57;;;;;;;6.95;4.90;;;;;;;;;;4985447;28;20023;-71
2021/08/21 05:09:22;;;;;;;6.63;4.65;;;;;;;;;;4979492;28;20034;-71
2021/08/21 05:11:49;;;;;;;7.20;5.22;;;;;;;;;;4985935;28;20066;-71
2021/08/21 05:14:15;;;;;;;7.35;5.40;;;;;;;;;;4982258;28;20027;-71
2021/08/21 05:16:43;;;;;;;6.72;4.60;;;;;;;;;;4983162;28;20437;-71
2021/08/21 05:19:24;;;;;;;7.43;4.97;;;;;;;;;;4980466;28;20679;-71
2021/08/21 05:21:52;;;;;;;8.82;5.35;;;;;;;;;;4983260;28;20041;-70
2021/08/21 05:24:18;;;;;;;9.05;5.70;;;;;;;;;;4980956;28;20049;-70
2021/08/21 05:26:50;;;;;;;12.98;6.13;;;;;;;;;;4985300;28;20026;-71
2021/08/21 05:29:16;;;;;;;10.77;6.22;;;;;;;;;;4985870;28;20036;-70
2021/08/21 05:31:42;;;;;;;9.35;5.90;;;;;;;;;;4987362;28;20025;-71
2021/08/21 05:34:12;;;;;;;9.40;6.55;;;;;;;;;;4985059;28;20030;-71
2021/08/21 05:36:38;;;;;;;10.88;6.45;;;;;;;;;;4984934;28;20072;-71
2021/08/21 05:39:07;;;;;;;8.50;6.05;;;;;;;;;;4982395;28;20441;-72
2021/08/21 05:41:32;;;;;;;14.55;6.50;;;;;;;;;;4981577;28;20394;-71
2021/08/21 05:43:58;;;;;;;10.20;6.53;;;;;;;;;;4987064;28;20034;-71
2021/08/21 05:46:24;;;;;;;12.02;7.20;;;;;;;;;;4983900;28;20093;-71
2021/08/21 05:48:50;;;;;;;10.80;6.70;;;;;;;;;;4976959;28;20027;-71
2021/08/21 05:51:16;;;;;;;10.57;7.38;;;;;;;;;;4975179;28;20568;-71
2021/08/21 05:53:42;;;;;;;12.48;6.82;;;;;;;;;;4981813;28;20508;-71
2021/08/21 05:56:11;;;;;;;12.38;7.57;;;;;;;;;;4983349;28;20042;-71
2021/08/21 05:58:37;;;;;;;13.38;7.78;;;;;;;;;;4981487;28;20069;-72
2021/08/21 06:01:03;;;;;;;15.02;8.45;;;;;;;;;;4981138;28;20050;-72
2021/08/21 06:03:29;;;;;;;11.27;7.45;;;;;;;;;;4985842;28;20548;-72
2021/08/21 06:05:55;;;;;;;10.98;7.15;;;;;;;;;;4987436;28;20105;-71
2021/08/21 06:08:20;;;;;;;11.93;7.43;;;;;;;;;;4977854;28;20034;-71
2021/08/21 06:10:46;;;;;;;12.82;7.85;;;;;;;;;;4986158;28;20042;-71
2021/08/21 06:13:12;;;;;;;12.35;7.25;;;;;;;;;;4980569;28;20548;-72
2021/08/21 06:15:38;;;;;;;10.90;6.68;;;;;;;;;;4977629;28;20167;-71
2021/08/21 06:18:04;;;;;;;12.82;6.72;;;;;;;;;;4986134;28;20034;-72
2021/08/21 06:20:30;;;;;;;10.88;6.53;;;;;;;;;;4977843;28;20030;-71
2021/08/21 06:22:56;;;;;;;10.55;6.72;;;;;;;;;;4986688;28;20080;-71
2021/08/21 06:25:22;;;;;;;13.00;6.43;;;;;;;;;;4982255;28;20026;-71
2021/08/21 06:27:49;;;;;;;14.70;7.22;;;;;;;;;;4986660;28;20026;-71
2021/08/21 06:30:15;;;;;;;10.63;6.68;;;;;;;;;;4989442;28;20065;-71
2021/08/21 06:32:41;;;;;;;12.15;7.05;;;;;;;;;;4988873;28;20022;-72
2021/08/21 06:35:07;;;;;;;14.88;8.13;;;;;;;;;;4982639;28;20504;-72
2021/08/21 06:37:33;;;;;;;11.75;7.13;;;;;;;;;;4985538;28;20057;-72
2021/08/21 06:39:59;;;;;;;10.50;7.20;;;;;;;;;;4986111;28;20034;-72
2021/08/21 06:42:25;;;;;;;11.73;7.80;;;;;;;;;;4976759;28;20057;-72
2021/08/21 06:44:51;;;;;;;11.15;7.47;;;;;;;;;;4987440;28;20050;-72
2021/08/21 06:47:17;;;;;;;10.45;6.55;;;;;;;;;;4981861;28;20404;-72
2021/08/21 06:49:43;;;;;;;14.55;7.88;;;;;;;;;;4983170;28;20026;-72
2021/08/21 06:52:09;;;;;;;10.85;7.55;;;;;;;;;;4987200;28;20026;-71
2021/08/21 06:54:35;;;;;;;14.70;8.25;;;;;;;;;;4983685;28;20142;-72
2021/08/21 06:57:01;;;;;;;11.90;7.53;;;;;;;;;;4982197;28;20536;-72
2021/08/21 06:59:27;;;;;;;12.52;6.72;;;;;;;;;;4990382;28;20113;-72
2021/08/21 07:01:53;;;;;;;13.35;7.32;;;;;;;;;;4988408;28;20029;-76
2021/08/21 07:04:19;;;;;;;15.82;8.20;;;;;;;;;;4986155;28;20481;-73
2021/08/21 07:06:45;;;;;;;13.65;7.35;;;;;;;;;;4986957;28;20531;-72
2021/08/21 07:09:11;;;;;;;14.23;7.72;;;;;;;;;;4987393;28;20117;-72
2021/08/21 07:11:37;;;;;;;12.95;7.22;;;;;;;;;;4986823;28;20049;-71
2021/08/21 07:14:03;;;;;;;10.82;6.63;;;;;;;;;;4998511;28;20103;-68
2021/08/21 07:16:29;;;;;;;15.57;7.30;;;;;;;;;;4983363;28;20030;-70
2021/08/21 07:18:55;;;;;;;10.55;7.00;;;;;;;;;;4982988;28;20397;-72
2021/08/21 07:21:22;;;;;;;12.60;7.13;;;;;;;;;;4988889;28;20038;-72
2021/08/21 07:23:48;;;;;;;10.35;6.97;;;;;;;;;;4989084;28;20509;-72
2021/08/21 07:26:14;;;;;;;11.35;7.47;;;;;;;;;;4986886;28;20497;-72
2021/08/21 07:28:40;;;;;;;13.90;7.03;;;;;;;;;;4990116;28;20023;-73
2021/08/21 07:31:14;;;;;;;12.82;6.35;;;;;;;;;;4989714;28;20567;-74
2021/08/21 07:33:40;;;;;;;11.73;6.55;;;;;;;;;;4990675;28;20161;-72
2021/08/21 07:36:06;;;;;;;9.32;5.57;;;;;;;;;;4984065;28;20509;-72
2021/08/21 07:38:32;;;;;;;9.18;6.43;;;;;;;;;;4986919;28;20596;-75
2021/08/21 07:40:58;;;;;;;9.48;5.85;;;;;;;;;;4994467;28;20038;-75
2021/08/21 07:43:24;;;;;;;9.85;5.45;;;;;;;;;;4987803;28;20050;-77
2021/08/21 07:45:50;;;;;;;11.98;5.95;;;;;;;;;;4986334;28;20093;-74
2021/08/21 07:48:16;;;;;;;10.10;5.88;;;;;;;;;;4978869;28;20033;-71
2021/08/21 07:50:43;;;;;;;8.73;5.10;;;;;;;;;;4989026;28;20043;-81
2021/08/21 07:53:09;;;;;;;11.00;5.95;;;;;;;;;;4983498;28;20019;-71
2021/08/21 07:55:36;;;;;;;13.02;6.70;;;;;;;;;;4984521;28;20031;-72
2021/08/21 07:58:02;;;;;;;10.35;5.43;;;;;;;;;;4982694;28;20150;-72
2021/08/21 08:00:28;;;;;;;8.40;5.15;;;;;;;;;;4983558;28;20109;-71
2021/08/21 08:02:54;;;;;;;10.02;6.13;;;;;;;;;;4987183;28;20754;-72
2021/08/21 08:05:22;;;;;;;7.10;4.63;;;;;;;;;;4980994;28;20156;-72
2021/08/21 08:07:48;;;;;;;7.18;4.70;;;;;;;;;;4983655;28;20117;-72
2021/08/21 08:10:14;;;;;;;10.23;4.63;;;;;;;;;;4981506;28;20117;-71
2021/08/21 08:12:40;;;;;;;5.97;4.35;;;;;;;;;;4985030;28;20058;-72
2021/08/21 08:15:06;;;;;;;9.35;4.70;;;;;;;;;;4987429;28;20050;-72
2021/08/21 08:17:32;;;;;;;7.10;4.30;;;;;;;;;;4984711;28;20033;-72
2021/08/21 08:19:58;;;;;;;7.80;4.95;;;;;;;;;;4984547;28;20039;-72
2021/08/21 08:22:25;;;;;;;10.25;4.93;;;;;;;;;;4986483;28;20085;-72
2021/08/21 08:24:51;;;;;;;6.43;4.22;;;;;;;;;;4982280;28;20054;-72
2021/08/21 08:27:18;;;;;;;5.95;3.63;;;;;;;;;;4983560;28;20042;-72
2021/08/21 08:29:44;;;;;;;5.65;3.83;;;;;;;;;;4981279;28;20079;-72
2021/08/21 08:32:10;;;;;;;7.32;3.70;;;;;;;;;;4986972;28;20420;-72
2021/08/21 08:34:36;;;;;;;7.32;4.10;;;;;;;;;;4980748;28;20027;-72
2021/08/21 08:37:02;;;;;;;5.88;3.75;;;;;;;;;;4983274;28;20425;-72
2021/08/21 08:39:28;;;;;;;6.40;4.10;;;;;;;;;;4987738;28;20045;-72
2021/08/21 08:41:55;;;;;;;7.63;4.22;;;;;;;;;;4986877;28;20424;-72
2021/08/21 08:44:23;;;;;;;8.40;3.63;;;;;;;;;;4986718;28;20041;-80
2021/08/21 08:46:50;;;;;;;6.50;3.97;;;;;;;;;;4987010;28;20422;-76
2021/08/21 08:49:17;;;;;;;7.13;3.38;;;;;;;;;;4984418;28;20679;-73
2021/08/21 08:51:43;;;;;;;7.00;4.03;;;;;;;;;;4978414;28;20034;-75
2021/08/21 08:54:09;;;;;;;3.97;2.90;;;;;;;;;;4983608;28;20453;-74
2021/08/21 08:56:35;;;;;;;6.47;3.50;;;;;;;;;;4984306;28;20010;-71
2021/08/21 08:59:01;;;;;;;5.07;3.38;;;;;;;;;;4990032;28;20642;-73
2021/08/21 09:01:27;;;;;;;7.28;3.45;;;;;;;;;;4987429;28;20034;-75
2021/08/21 09:04:13;;;;;;;5.65;3.38;;;;;;;;;;4985782;28;20057;-75
2021/08/21 09:06:39;;;;;;;5.72;3.33;;;;;;;;;;4985129;28;20397;-74
2021/08/21 09:09:09;;;;;;;7.45;3.53;;;;;;;;;;4981449;28;20042;-76
2021/08/21 09:11:40;;;;;;;5.57;3.85;;;;;;;;;;4989091;28;20050;-75
2021/08/21 09:14:38;;;;;;;6.28;4.10;;;;;;;;;;4989658;28;20034;-74
2021/08/21 09:17:18;;;;;;;6.35;4.03;;;;;;;;;;4941255;28;20485;-74
2021/08/21 09:19:45;;;;;;;5.63;4.03;;;;;;;;;;4982030;28;20134;-74
2021/08/21 09:22:12;;;;;;;6.38;4.07;;;;;;;;;;4976263;28;20046;-75
2021/08/21 09:24:39;;;;;;;6.07;4.13;;;;;;;;;;4985423;28;20023;-74
2021/08/21 09:27:22;;;;;;;6.13;4.00;;;;;;;;;;4987067;28;20441;-75
2021/08/21 09:30:03;;;;;;;7.03;4.07;;;;;;;;;;4989174;28;20046;-74
2021/08/21 09:32:29;;;;;;;4.65;3.42;;;;;;;;;;4984400;28;20516;-76
2021/08/21 09:35:01;;;;;;;5.10;2.95;;;;;;;;;;4986339;28;20531;-74
2021/08/21 09:37:27;;;;;;;4.00;3.10;;;;;;;;;;4985966;28;20120;-74
2021/08/21 09:40:02;;;;;;;6.85;3.60;;;;;;;;;;4986451;28;20433;-74
2021/08/21 09:42:37;;;;;;;4.93;3.10;;;;;;;;;;4979264;28;20030;-73
2021/08/21 09:45:08;;;;;;;4.65;3.35;;;;;;;;;;4982642;28;20084;-74
2021/08/21 09:47:34;;;;;;;;;;;;;;;;;;4986286;28;20058;-74
2021/08/21 09:50:15;;;;;;;4.07;2.60;;;;;;;;;;4984813;28;20567;-73
2021/08/21 09:52:42;;;;;;;4.43;3.25;;;;;;;;;;4983548;28;20085;-74
2021/08/21 09:55:19;;;;;;;4.95;2.88;;;;;;;;;;4974588;28;20037;-74
2021/08/21 09:57:57;;;;;;;3.60;2.63;;;;;;;;;;4973355;28;20374;-74
2021/08/21 10:00:23;;;;;;;5.72;2.58;;;;;;;;;;4978429;28;20030;-74
2021/08/21 10:02:49;;;;;;;4.53;2.72;;;;;;;;;;4992462;28;20574;-74
2021/08/21 10:05:16;;;;;;;3.88;2.53;;;;;;;;;;4991785;28;20104;-75
2021/08/21 10:07:45;;;;;;;6.72;2.83;;;;;;;;;;4994970;28;21364;-74
2021/08/21 10:10:12;;;;;;;4.18;2.58;;;;;;;;;;4997163;28;20034;-75
2021/08/21 10:12:44;;;;;;;3.70;2.30;;;;;;;;;;4994382;28;20481;-74
2021/08/21 10:15:10;;;;;;;2.85;2.30;;;;;;;;;;4994290;28;20064;-74
2021/08/21 10:17:38;;;;;;;3.28;2.55;;;;;;;;;;4995438;28;20018;-74
2021/08/21 10:20:04;;;;;;;3.72;2.28;;;;;;;;;;4995845;28;20063;-74
2021/08/21 10:22:30;;;;;;;5.82;2.60;;;;;;;;;;4984443;28;21523;-74
2021/08/21 10:25:06;;;;;;;4.28;2.08;;;;;;;;;;4994368;28;20042;-74
2021/08/21 10:27:44;;;;;;;4.90;2.70;;;;;;;;;;4992061;28;20049;-74
2021/08/21 10:30:17;;;;;;;5.97;2.00;;;;;;;;;;4993022;28;20031;-74
2021/08/21 10:32:44;;;;;;;3.00;2.03;;;;;;;;;;4994603;28;20034;-74
2021/08/21 10:35:11;;;;;;;3.70;2.28;;;;;;;;;;4993604;28;20042;-74
2021/08/21 10:37:38;;;;;;;3.72;2.30;;;;;;;;;;4994903;28;20026;-74
2021/08/21 10:40:23;;;;;;;4.50;2.35;;;;;;;;;;4987906;28;20034;-74
2021/08/21 10:42:56;;;;;;;5.18;2.25;;;;;;;;;;4994282;28;20038;-75
2021/08/21 10:45:42;;;;;;;3.55;2.20;;;;;;;;;;4992404;28;20124;-74
2021/08/21 10:48:31;;;;;;;6.25;2.10;;;;;;;;;;4996934;28;20026;-74
2021/08/21 10:50:57;;;;;;;3.08;2.10;;;;;;;;;;4993703;28;20030;-75
2021/08/21 10:53:26;;;;;;;4.07;2.30;;;;;;;;;;4994238;28;20022;-74
2021/08/21 10:55:52;;;;;;;2.72;2.00;;;;;;;;;;4992577;28;20030;-74
2021/08/21 10:58:19;;;;;;;6.40;2.40;;;;;;;;;;4992596;28;20018;-75
2021/08/21 11:00:47;;;;;;;4.45;2.22;;;;;;;;;;4993713;28;20504;-74
2021/08/21 11:03:19;;;;;;;3.08;1.85;;;;;;;;;;4996002;28;20548;-74
2021/08/21 11:05:52;;;;;;;4.20;2.15;;;;;;;;;;4993444;28;20030;-74
2021/08/21 11:08:18;;;;;;;2.55;1.90;;;;;;;;;;4994279;28;20023;-74
2021/08/21 11:10:44;;;;;;;4.53;1.80;;;;;;;;;;4995796;28;20050;-75
2021/08/21 11:13:12;;;;;;;2.00;1.80;;;;;;;;;;4994038;28;20022;-74
2021/08/21 11:15:38;;;;;;;3.30;2.30;;;;;;;;;;4994752;28;20388;-74
2021/08/21 11:18:19;;;;;;;3.45;2.20;;;;;;;;;;4986670;28;20031;-74
2021/08/21 11:20:45;;;;;;;;;;;;;;;;;;4994313;28;20022;-75
2021/08/21 11:23:14;;;;;;;3.40;2.45;;;;;;;;;;4993781;28;19936;-75
2021/08/21 11:25:41;;;;;;;4.03;2.45;;;;;;;;;;4993103;28;20027;-75
2021/08/21 11:28:20;;;;;;;5.63;2.85;;;;;;;;;;4993554;28;20025;-75
2021/08/21 11:31:06;;;;;;;3.15;2.40;;;;;;;;;;4994734;28;20501;-75
2021/08/21 11:33:33;;;;;;;2.83;2.05;;;;;;;;;;4996267;28;20022;-74
2021/08/21 11:35:59;;;;;;;3.35;2.25;;;;;;;;;;4993160;28;20540;-75
2021/08/21 11:38:27;;;;;;;5.15;2.40;;;;;;;;;;4992286;28;20039;-75
2021/08/21 11:40:54;;;;;;;3.30;2.08;;;;;;;;;;4994650;28;20034;-75
2021/08/21 11:43:24;;;;;;;2.58;2.22;;;;;;;;;;4996884;28;20484;-75
2021/08/21 11:45:51;;;;;;;2.30;1.90;;;;;;;;;;4994617;28;20035;-75
2021/08/21 11:48:17;;;;;;;2.78;2.03;;;;;;;;;;4999367;28;20042;-75
2021/08/21 11:50:52;;;;;;;3.00;1.90;;;;;;;;;;4997100;28;20112;-75
2021/08/21 11:53:19;;;;;;;4.03;2.25;;;;;;;;;;4991290;28;20080;-75
2021/08/21 11:55:45;;;;;;;2.47;2.20;;;;;;;;;;4997130;28;20022;-75
2021/08/21 11:58:12;;;;;;;3.72;2.13;;;;;;;;;;4995039;28;20125;-76
2021/08/21 12:00:44;;;;;;;4.13;2.50;;;;;;;;;;4997158;28;20513;-76
2021/08/21 12:03:11;;;;;;;2.45;1.73;;;;;;;;;;4996619;28;20034;-76
2021/08/21 12:05:46;;;;;;;2.55;2.13;;;;;;;;;;4996755;28;20038;-75
2021/08/21 12:08:15;;;;;;;2.70;2.15;;;;;;;;;;4994778;28;20034;-75
2021/08/21 12:10:46;;;;;;;2.97;2.08;;;;;;;;;;4996299;28;20460;-75
2021/08/21 12:13:12;;;;;;;2.75;1.90;;;;;;;;;;4995598;28;20104;-76
2021/08/21 12:15:38;;;;;;;3.13;2.22;;;;;;;;;;4996331;28;20370;-75
2021/08/21 12:18:06;;;;;;;2.20;1.90;;;;;;;;;;4996476;28;20057;-76
2021/08/21 12:20:32;;;;;;;2.88;1.92;;;;;;;;;;4997079;28;20520;-76
2021/08/21 12:22:58;;;;;;;3.17;2.00;;;;;;;;;;4995099;28;20041;-76
2021/08/21 12:25:24;;;;;;;3.05;2.20;;;;;;;;;;4987761;28;20030;-76
2021/08/21 12:27:50;;;;;;;3.22;1.98;;;;;;;;;;4981855;28;20060;-76
2021/08/21 12:30:19;;;;;;;2.42;1.77;;;;;;;;;;4994021;28;20060;-76
2021/08/21 12:32:45;;;;;;;176.90;33.42;;;;;;;;;;4976544;28;20157;-75
2021/08/21 12:35:13;;;;;;;5.32;2.70;;;;;;;;;;4989650;28;20031;-76
2021/08/21 12:37:39;;;;;;;8.05;3.35;;;;;;;;;;4976985;28;20061;-77
2021/08/21 12:40:06;;;;;;;4.93;2.53;;;;;;;;;;4990855;28;20353;-75
2021/08/21 12:42:31;;;;;;;2.85;1.90;;;;;;;;;;4982591;28;20555;-75
2021/08/21 12:45:00;;;;;;;5.68;3.17;;;;;;;;;;4990264;28;20034;-75
2021/08/21 12:47:35;;;;;;;10.02;4.57;;;;;;;;;;4985572;28;20486;-75
2021/08/21 12:50:09;;;;;;;2.53;2.10;;;;;;;;;;4984231;28;20038;-72
2021/08/21 12:52:35;;;;;;;5.18;2.13;;;;;;;;;;4982045;28;20031;-72
2021/08/21 12:55:02;;;;;;;3.63;2.30;;;;;;;;;;4982406;28;20049;-72
2021/08/21 12:57:32;;;;;;;2.83;1.98;;;;;;;;;;4981143;28;20039;-73
2021/08/21 13:00:04;;;;;;;3.30;2.13;;;;;;;;;;4987402;28;20829;-74
2021/08/21 13:02:40;;;;;;;4.70;2.22;;;;;;;;;;4988546;28;20045;-72
2021/08/21 13:05:06;;;;;;;3.65;2.05;;;;;;;;;;4987041;28;20370;-73
2021/08/21 13:07:58;;;;;;;3.92;2.15;;;;;;;;;;4987626;28;20121;-71
2021/08/21 13:10:24;;;;;;;2.63;1.83;;;;;;;;;;4972449;28;20038;-73
2021/08/21 13:12:51;;;;;;;2.63;1.83;;;;;;;;;;4978310;28;20026;-72
2021/08/21 13:15:17;;;;;;;2.17;1.58;;;;;;;;;;4982789;28;20061;-72
2021/08/21 13:17:44;;;;;;;12.77;4.47;;;;;;;;;;4979153;28;20477;-70
2021/08/21 13:20:10;;;;;;;5.40;2.58;;;;;;;;;;4986901;28;20026;-72
2021/08/21 13:22:36;;;;;;;2.00;1.67;;;;;;;;;;4984685;28;20065;-74
2021/08/21 13:25:03;;;;;;;6.15;2.58;;;;;;;;;;4980755;28;20031;-74
2021/08/21 13:27:29;;;;;;;4.20;2.20;;;;;;;;;;4988900;28;20462;-75
2021/08/21 13:29:55;;;;;;;10.15;4.82;;;;;;;;;;4982753;28;20147;-77
2021/08/21 13:32:21;;;;;;;4.78;2.40;;;;;;;;;;4984818;28;20030;-76
2021/08/21 13:34:48;;;;;;;3.22;1.88;;;;;;;;;;4984552;28;20023;-73
2021/08/21 13:37:14;;;;;;;1.95;1.80;;;;;;;;;;4986490;28;20509;-73
2021/08/21 13:39:40;;;;;;;3.90;2.22;;;;;;;;;;4983307;28;20049;-82
2021/08/21 13:42:07;;;;;;;3.92;1.85;;;;;;;;;;4983840;28;20038;-70
2021/08/21 13:44:33;;;;;;;5.55;2.47;;;;;;;;;;4981908;28;20063;-72
2021/08/21 13:47:00;;;;;;;3.35;2.15;;;;;;;;;;4985248;28;20497;-73
2021/08/21 13:49:26;;;;;;;3.10;1.83;;;;;;;;;;4985156;28;20040;-75
2021/08/21 13:51:52;;;;;;;3.03;1.63;;;;;;;;;;4987522;28;20489;-75
2021/08/21 13:54:18;;;;;;;4.18;2.05;;;;;;;;;;4975676;28;20038;-75
2021/08/21 13:56:44;;;;;;;4.35;1.90;;;;;;;;;;4974111;28;20035;-76
2021/08/21 13:59:10;;;;;;;4.35;1.90;;;;;;;;;;4985151;28;20736;-76
2021/08/21 14:01:37;;;;;;;1.77;1.67;;;;;;;;;;4984424;28;20026;-76
2021/08/21 14:04:03;;;;;;;1.98;1.83;;;;;;;;;;4985089;28;20442;-76
2021/08/21 14:06:29;;;;;;;6.70;2.15;;;;;;;;;;4985966;28;20022;-76
2021/08/21 14:08:55;;;;;;;3.30;1.70;;;;;;;;;;4986700;28;20397;-76
2021/08/21 14:11:21;;;;;;;2.03;1.83;;;;;;;;;;4982389;28;20046;-76
2021/08/21 14:13:47;;;;;;;2.03;1.83;;;;;;;;;;4979140;28;20034;-76
2021/08/21 14:16:13;;;;;;;1.92;1.77;;;;;;;;;;4979848;28;20029;-76
2021/08/21 14:18:39;;;;;;;3.83;1.92;;;;;;;;;;4985272;28;20035;-75
2021/08/21 14:21:07;;;;;;;22.42;8.75;;;;;;;;;;4974956;28;20092;-76
2021/08/21 14:23:33;;;;;;;3.65;2.00;;;;;;;;;;4984253;28;20030;-76
2021/08/21 14:25:59;;;;;;;3.22;1.75;;;;;;;;;;4987643;28;20038;-76
2021/08/21 14:28:25;;;;;;;2.38;2.03;;;;;;;;;;4979580;28;20035;-75
2021/08/21 14:30:50;;;;;;;2.22;1.77;;;;;;;;;;4987560;28;20093;-75
2021/08/21 14:33:16;;;;;;;2.83;1.83;;;;;;;;;;4980140;28;20125;-74
2021/08/21 14:35:42;;;;;;;4.85;2.10;;;;;;;;;;4983670;28;20537;-75
2021/08/21 14:38:08;;;;;;;2.63;1.67;;;;;;;;;;4973000;28;20034;-75
2021/08/21 14:40:34;;;;;;;4.03;1.92;;;;;;;;;;4984122;28;20295;-75
2021/08/21 14:43:00;;;;;;;1.92;1.70;;;;;;;;;;4979859;28;20034;-75